sensor_id;sensor_type;location;lat;lon;timestamp;pressure;altitude;pressure_sealevel;temperature;humidity
72961;BME280;61141;46.204;19.774;2023-06-10T00:02:00;99980.50;;;15.92;100.00
72961;BME280;61141;46.204;19.774;2023-06-10T00:05:03;99978.53;;;15.92;100.00
72961;BME280;61141;46.204;19.774;2023-06-10T00:08:06;99978.06;;;15.63;100.00
72961;BME280;61141;46.204;19.774;2023-06-10T00:11:10;99972.66;;;15.53;100.00
72961;BME280;61141;46.204;19.774;2023-06-10T00:14:13;99973.00;;;15.58;100.00
72961;BME280;61141;46.204;19.774;2023-06-10T00:17:16;99970.50;;;15.71;100.00
72961;BME280;61141;46.204;19.774;2023-06-10T00:20:19;99959.56;;;15.60;100.00
72961;BME280;61141;46.204;19.774;2023-06-10T00:23:26;99969.91;;;15.53;100.00
72961;BME280;61141;46.204;19.774;2023-06-10T00:26:33;99954.22;;;15.46;100.00
72961;BME280;61141;46.204;19.774;2023-06-10T00:29:36;99970.19;;;15.65;100.00
72961;BME280;61141;46.204;19.774;2023-06-10T00:32:38;99968.44;;;15.78;100.00
72961;BME280;61141;46.204;19.774;2023-06-10T00:35:42;99967.19;;;15.83;100.00
72961;BME280;61141;46.204;19.774;2023-06-10T00:38:44;99956.53;;;15.85;100.00
72961;BME280;61141;46.204;19.774;2023-06-10T00:41:47;99956.91;;;15.83;100.00
72961;BME280;61141;46.204;19.774;2023-06-10T00:44:50;99958.91;;;15.83;100.00
72961;BME280;61141;46.204;19.774;2023-06-10T00:47:53;99959.22;;;15.88;100.00
72961;BME280;61141;46.204;19.774;2023-06-10T00:50:57;99957.66;;;15.88;100.00
72961;BME280;61141;46.204;19.774;2023-06-10T00:54:01;99962.72;;;15.93;100.00
72961;BME280;61141;46.204;19.774;2023-06-10T00:57:05;99962.28;;;15.98;100.00
72961;BME280;61141;46.204;19.774;2023-06-10T01:00:10;99976.09;;;15.98;100.00
72961;BME280;61141;46.204;19.774;2023-06-10T01:03:14;99976.03;;;16.01;100.00
72961;BME280;61141;46.204;19.774;2023-06-10T01:09:55;99973.34;;;15.94;100.00
72961;BME280;61141;46.204;19.774;2023-06-10T01:13:03;99972.97;;;15.96;100.00
72961;BME280;61141;46.204;19.774;2023-06-10T01:16:09;99977.19;;;16.04;100.00
72961;BME280;61141;46.204;19.774;2023-06-10T01:19:13;99970.75;;;16.10;100.00
72961;BME280;61141;46.204;19.774;2023-06-10T01:22:17;99977.03;;;16.14;100.00
72961;BME280;61141;46.204;19.774;2023-06-10T01:25:21;99971.03;;;16.19;100.00
72961;BME280;61141;46.204;19.774;2023-06-10T01:32:15;99967.91;;;15.91;100.00
72961;BME280;61141;46.204;19.774;2023-06-10T01:35:21;99969.03;;;15.93;100.00
72961;BME280;61141;46.204;19.774;2023-06-10T01:38:30;99968.28;;;15.89;100.00
72961;BME280;61141;46.204;19.774;2023-06-10T01:41:34;99973.59;;;15.76;100.00
72961;BME280;61141;46.204;19.774;2023-06-10T01:44:39;99972.16;;;15.65;100.00
72961;BME280;61141;46.204;19.774;2023-06-10T01:47:43;99971.37;;;15.64;100.00
72961;BME280;61141;46.204;19.774;2023-06-10T01:50:46;99966.97;;;15.70;100.00
72961;BME280;61141;46.204;19.774;2023-06-10T01:53:48;99961.44;;;15.70;100.00
72961;BME280;61141;46.204;19.774;2023-06-10T01:56:52;99967.78;;;15.67;100.00
72961;BME280;61141;46.204;19.774;2023-06-10T01:59:54;99971.72;;;15.66;100.00
72961;BME280;61141;46.204;19.774;2023-06-10T02:02:57;99973.59;;;15.76;100.00
72961;BME280;61141;46.204;19.774;2023-06-10T02:06:01;99972.34;;;15.81;100.00
72961;BME280;61141;46.204;19.774;2023-06-10T02:09:03;99969.16;;;15.82;100.00
72961;BME280;61141;46.204;19.774;2023-06-10T02:12:07;99978.97;;;15.87;100.00
72961;BME280;61141;46.204;19.774;2023-06-10T02:15:09;99974.66;;;15.86;100.00
72961;BME280;61141;46.204;19.774;2023-06-10T02:18:13;99969.09;;;15.90;100.00
72961;BME280;61141;46.204;19.774;2023-06-10T02:21:15;99978.28;;;15.79;100.00
72961;BME280;61141;46.204;19.774;2023-06-10T02:24:18;99967.16;;;15.53;100.00
72961;BME280;61141;46.204;19.774;2023-06-10T02:27:21;99973.09;;;15.51;100.00
72961;BME280;61141;46.204;19.774;2023-06-10T02:30:24;99970.25;;;15.58;100.00
72961;BME280;61141;46.204;19.774;2023-06-10T02:33:27;99980.44;;;15.65;100.00
72961;BME280;61141;46.204;19.774;2023-06-10T02:36:30;99984.72;;;15.69;100.00
72961;BME280;61141;46.204;19.774;2023-06-10T02:39:34;99988.22;;;15.73;100.00
72961;BME280;61141;46.204;19.774;2023-06-10T02:42:37;99995.72;;;15.73;100.00
72961;BME280;61141;46.204;19.774;2023-06-10T02:45:40;99988.63;;;15.72;100.00
72961;BME280;61141;46.204;19.774;2023-06-10T02:48:43;99982.78;;;15.66;100.00
72961;BME280;61141;46.204;19.774;2023-06-10T02:51:47;99987.84;;;15.71;100.00
72961;BME280;61141;46.204;19.774;2023-06-10T02:54:50;99992.59;;;15.71;100.00
72961;BME280;61141;46.204;19.774;2023-06-10T02:57:53;99989.91;;;15.64;100.00
72961;BME280;61141;46.204;19.774;2023-06-10T03:00:57;99980.75;;;15.70;100.00
72961;BME280;61141;46.204;19.774;2023-06-10T03:04:02;99986.19;;;15.77;100.00
72961;BME280;61141;46.204;19.774;2023-06-10T03:07:06;99986.81;;;15.58;100.00
72961;BME280;61141;46.204;19.774;2023-06-10T03:10:10;99990.69;;;15.64;100.00
72961;BME280;61141;46.204;19.774;2023-06-10T03:13:13;99994.69;;;15.60;100.00
72961;BME280;61141;46.204;19.774;2023-06-10T03:16:16;99990.31;;;15.62;100.00
72961;BME280;61141;46.204;19.774;2023-06-10T03:19:20;99986.81;;;15.58;100.00
72961;BME280;61141;46.204;19.774;2023-06-10T03:22:24;99998.72;;;15.52;100.00
72961;BME280;61141;46.204;19.774;2023-06-10T03:25:27;99991.69;;;15.44;100.00
72961;BME280;61141;46.204;19.774;2023-06-10T03:28:31;99989.31;;;15.42;100.00
72961;BME280;61141;46.204;19.774;2023-06-10T03:31:34;99988.16;;;15.40;100.00
72961;BME280;61141;46.204;19.774;2023-06-10T03:34:40;99989.28;;;15.46;100.00
72961;BME280;61141;46.204;19.774;2023-06-10T03:37:44;99994.84;;;15.42;100.00
72961;BME280;61141;46.204;19.774;2023-06-10T03:40:47;99998.03;;;15.41;100.00
72961;BME280;61141;46.204;19.774;2023-06-10T03:43:50;100006.69;;;15.43;100.00
72961;BME280;61141;46.204;19.774;2023-06-10T03:46:54;99999.16;;;15.47;100.00
72961;BME280;61141;46.204;19.774;2023-06-10T03:49:57;100000.34;;;15.49;100.00
72961;BME280;61141;46.204;19.774;2023-06-10T03:53:01;100007.72;;;15.59;100.00
72961;BME280;61141;46.204;19.774;2023-06-10T03:56:04;100006.44;;;15.67;100.00
72961;BME280;61141;46.204;19.774;2023-06-10T03:59:07;100004.47;;;15.68;100.00
72961;BME280;61141;46.204;19.774;2023-06-10T04:02:10;99998.63;;;15.62;100.00
72961;BME280;61141;46.204;19.774;2023-06-10T04:05:14;100006.06;;;15.65;100.00
72961;BME280;61141;46.204;19.774;2023-06-10T04:08:16;100007.22;;;15.68;100.00
72961;BME280;61141;46.204;19.774;2023-06-10T04:11:19;100008.72;;;15.76;100.00
72961;BME280;61141;46.204;19.774;2023-06-10T04:14:23;100001.12;;;15.83;100.00
72961;BME280;61141;46.204;19.774;2023-06-10T04:17:26;100005.16;;;15.75;100.00
72961;BME280;61141;46.204;19.774;2023-06-10T04:20:29;100001.66;;;15.71;100.00
72961;BME280;61141;46.204;19.774;2023-06-10T04:23:32;99996.22;;;15.64;100.00
72961;BME280;61141;46.204;19.774;2023-06-10T04:26:35;100004.50;;;15.64;100.00
72961;BME280;61141;46.204;19.774;2023-06-10T04:29:40;99997.31;;;15.74;100.00
72961;BME280;61141;46.204;19.774;2023-06-10T04:32:43;99988.09;;;15.84;100.00
72961;BME280;61141;46.204;19.774;2023-06-10T04:35:46;99996.22;;;15.98;100.00
72961;BME280;61141;46.204;19.774;2023-06-10T04:38:51;100001.22;;;16.07;100.00
72961;BME280;61141;46.204;19.774;2023-06-10T04:41:55;99999.50;;;16.16;100.00
72961;BME280;61141;46.204;19.774;2023-06-10T04:44:58;99998.66;;;16.23;100.00
72961;BME280;61141;46.204;19.774;2023-06-10T04:48:02;99998.84;;;16.35;100.00
72961;BME280;61141;46.204;19.774;2023-06-10T04:51:06;99994.34;;;16.49;100.00
72961;BME280;61141;46.204;19.774;2023-06-10T04:54:09;100003.03;;;16.47;100.00
72961;BME280;61141;46.204;19.774;2023-06-10T04:57:12;100007.81;;;16.73;100.00
72961;BME280;61141;46.204;19.774;2023-06-10T05:00:15;100002.53;;;17.06;100.00
72961;BME280;61141;46.204;19.774;2023-06-10T05:03:18;100006.25;;;17.19;100.00
72961;BME280;61141;46.204;19.774;2023-06-10T05:06:21;100014.75;;;17.51;100.00
72961;BME280;61141;46.204;19.774;2023-06-10T05:09:23;100015.06;;;17.37;100.00
72961;BME280;61141;46.204;19.774;2023-06-10T05:12:26;100008.72;;;17.79;100.00
72961;BME280;61141;46.204;19.774;2023-06-10T05:15:29;99997.34;;;17.93;100.00
72961;BME280;61141;46.204;19.774;2023-06-10T05:18:33;100007.78;;;18.25;100.00
72961;BME280;61141;46.204;19.774;2023-06-10T05:21:36;100014.91;;;18.42;100.00
72961;BME280;61141;46.204;19.774;2023-06-10T05:24:39;100014.59;;;18.56;100.00
72961;BME280;61141;46.204;19.774;2023-06-10T05:27:42;100016.63;;;18.72;100.00
72961;BME280;61141;46.204;19.774;2023-06-10T05:30:45;100013.81;;;18.56;100.00
72961;BME280;61141;46.204;19.774;2023-06-10T05:33:48;100017.13;;;18.67;100.00
72961;BME280;61141;46.204;19.774;2023-06-10T05:36:51;100013.87;;;18.72;100.00
72961;BME280;61141;46.204;19.774;2023-06-10T05:39:54;100019.25;;;18.95;100.00
72961;BME280;61141;46.204;19.774;2023-06-10T05:42:57;100016.37;;;18.99;100.00
72961;BME280;61141;46.204;19.774;2023-06-10T05:46:00;100013.44;;;19.38;100.00
72961;BME280;61141;46.204;19.774;2023-06-10T05:49:03;100011.94;;;19.50;100.00
72961;BME280;61141;46.204;19.774;2023-06-10T05:52:06;100009.38;;;19.84;100.00
72961;BME280;61141;46.204;19.774;2023-06-10T05:55:09;100011.84;;;19.94;100.00
72961;BME280;61141;46.204;19.774;2023-06-10T05:58:13;100011.47;;;20.21;100.00
72961;BME280;61141;46.204;19.774;2023-06-10T06:01:16;100009.44;;;20.38;100.00
72961;BME280;61141;46.204;19.774;2023-06-10T06:04:20;100004.62;;;20.26;100.00
72961;BME280;61141;46.204;19.774;2023-06-10T06:07:22;100005.28;;;20.30;100.00
72961;BME280;61141;46.204;19.774;2023-06-10T06:10:25;100000.16;;;20.41;100.00
72961;BME280;61141;46.204;19.774;2023-06-10T06:13:28;100013.75;;;20.89;100.00
72961;BME280;61141;46.204;19.774;2023-06-10T06:16:32;100018.50;;;21.27;98.32
72961;BME280;61141;46.204;19.774;2023-06-10T06:19:35;100019.41;;;21.11;99.31
72961;BME280;61141;46.204;19.774;2023-06-10T06:22:38;100014.69;;;21.33;97.64
72961;BME280;61141;46.204;19.774;2023-06-10T06:25:40;100010.59;;;21.59;94.83
72961;BME280;61141;46.204;19.774;2023-06-10T06:28:43;100016.00;;;21.41;96.80
72961;BME280;61141;46.204;19.774;2023-06-10T06:31:46;100019.87;;;21.10;96.42
72961;BME280;61141;46.204;19.774;2023-06-10T06:34:49;100013.97;;;20.82;95.01
72961;BME280;61141;46.204;19.774;2023-06-10T06:37:56;100019.97;;;21.06;94.95
72961;BME280;61141;46.204;19.774;2023-06-10T06:40:59;100012.38;;;21.19;96.69
72961;BME280;61141;46.204;19.774;2023-06-10T06:44:05;100020.94;;;21.37;95.29
72961;BME280;61141;46.204;19.774;2023-06-10T06:47:10;100004.94;;;21.50;93.83
72961;BME280;61141;46.204;19.774;2023-06-10T06:50:13;100008.31;;;21.45;90.23
72961;BME280;61141;46.204;19.774;2023-06-10T06:53:16;100017.38;;;21.37;93.39
72961;BME280;61141;46.204;19.774;2023-06-10T06:56:19;100014.19;;;22.03;87.50
72961;BME280;61141;46.204;19.774;2023-06-10T06:59:23;100024.06;;;22.17;87.54
72961;BME280;61141;46.204;19.774;2023-06-10T07:02:28;100019.25;;;22.48;85.54
72961;BME280;61141;46.204;19.774;2023-06-10T07:05:30;100014.25;;;22.43;83.87
72961;BME280;61141;46.204;19.774;2023-06-10T07:08:33;100022.38;;;21.98;86.30
72961;BME280;61141;46.204;19.774;2023-06-10T07:11:36;100011.28;;;22.68;85.46
72961;BME280;61141;46.204;19.774;2023-06-10T07:14:39;100018.00;;;22.49;84.84
72961;BME280;61141;46.204;19.774;2023-06-10T07:17:42;100010.00;;;23.09;84.05
72961;BME280;61141;46.204;19.774;2023-06-10T07:20:45;100017.81;;;22.13;87.04
72961;BME280;61141;46.204;19.774;2023-06-10T07:23:49;100016.59;;;22.45;86.10
72961;BME280;61141;46.204;19.774;2023-06-10T07:26:51;100016.87;;;23.26;80.91
72961;BME280;61141;46.204;19.774;2023-06-10T07:29:54;100015.75;;;22.97;81.04
72961;BME280;61141;46.204;19.774;2023-06-10T07:32:57;100019.72;;;22.47;82.30
72961;BME280;61141;46.204;19.774;2023-06-10T07:36:00;100016.19;;;22.55;80.77
72961;BME280;61141;46.204;19.774;2023-06-10T07:39:04;100012.19;;;22.35;84.53
72961;BME280;61141;46.204;19.774;2023-06-10T07:42:07;100021.13;;;22.51;85.16
72961;BME280;61141;46.204;19.774;2023-06-10T07:45:10;100010.34;;;23.11;81.79
72961;BME280;61141;46.204;19.774;2023-06-10T07:48:13;100006.53;;;22.87;82.30
72961;BME280;61141;46.204;19.774;2023-06-10T07:51:17;100014.53;;;23.16;82.09
72961;BME280;61141;46.204;19.774;2023-06-10T07:54:20;100009.41;;;23.05;82.16
72961;BME280;61141;46.204;19.774;2023-06-10T07:57:22;100008.09;;;23.55;79.93
72961;BME280;61141;46.204;19.774;2023-06-10T08:00:25;100001.41;;;23.71;80.01
72961;BME280;61141;46.204;19.774;2023-06-10T08:03:28;99998.12;;;23.45;77.97
72961;BME280;61141;46.204;19.774;2023-06-10T08:06:31;99997.31;;;24.08;76.02
72961;BME280;61141;46.204;19.774;2023-06-10T08:09:34;99995.75;;;24.07;76.18
72961;BME280;61141;46.204;19.774;2023-06-10T08:12:37;99994.25;;;24.48;68.51
72961;BME280;61141;46.204;19.774;2023-06-10T08:15:40;100001.94;;;24.38;72.57
72961;BME280;61141;46.204;19.774;2023-06-10T08:18:43;99986.41;;;24.94;69.77
72961;BME280;61141;46.204;19.774;2023-06-10T08:21:46;99997.66;;;24.52;69.17
72961;BME280;61141;46.204;19.774;2023-06-10T08:24:48;99990.88;;;24.35;71.27
72961;BME280;61141;46.204;19.774;2023-06-10T08:27:51;99990.78;;;24.11;71.70
72961;BME280;61141;46.204;19.774;2023-06-10T08:30:54;99989.25;;;24.10;74.09
72961;BME280;61141;46.204;19.774;2023-06-10T08:33:59;99992.69;;;24.47;73.34
72961;BME280;61141;46.204;19.774;2023-06-10T08:37:02;99986.59;;;24.16;75.57
72961;BME280;61141;46.204;19.774;2023-06-10T08:40:06;99986.09;;;24.17;74.51
72961;BME280;61141;46.204;19.774;2023-06-10T08:43:26;99976.72;;;24.38;73.04
72961;BME280;61141;46.204;19.774;2023-06-10T08:46:33;99978.00;;;24.61;71.29
72961;BME280;61141;46.204;19.774;2023-06-10T08:49:38;99958.81;;;25.01;68.01
72961;BME280;61141;46.204;19.774;2023-06-10T08:52:44;99975.81;;;24.98;65.29
72961;BME280;61141;46.204;19.774;2023-06-10T08:55:51;99971.00;;;24.06;69.93
72961;BME280;61141;46.204;19.774;2023-06-10T08:58:55;99967.72;;;24.25;69.92
72961;BME280;61141;46.204;19.774;2023-06-10T09:02:00;99973.13;;;24.38;69.82
72961;BME280;61141;46.204;19.774;2023-06-10T09:05:04;99968.31;;;24.71;67.30
72961;BME280;61141;46.204;19.774;2023-06-10T09:08:07;99949.97;;;24.37;67.68
72961;BME280;61141;46.204;19.774;2023-06-10T09:11:12;99960.72;;;24.95;65.04
72961;BME280;61141;46.204;19.774;2023-06-10T09:14:14;99969.56;;;25.41;64.34
72961;BME280;61141;46.204;19.774;2023-06-10T09:17:19;99958.44;;;25.85;59.74
72961;BME280;61141;46.204;19.774;2023-06-10T09:20:22;99950.06;;;26.29;57.94
72961;BME280;61141;46.204;19.774;2023-06-10T09:23:25;99939.87;;;25.35;60.74
72961;BME280;61141;46.204;19.774;2023-06-10T09:26:29;99942.97;;;25.90;59.81
72961;BME280;61141;46.204;19.774;2023-06-10T09:29:47;99954.97;;;25.90;60.28
72961;BME280;61141;46.204;19.774;2023-06-10T09:32:51;99947.59;;;25.49;60.77
72961;BME280;61141;46.204;19.774;2023-06-10T09:35:55;99945.56;;;25.93;59.95
72961;BME280;61141;46.204;19.774;2023-06-10T09:38:59;99943.94;;;26.01;56.66
72961;BME280;61141;46.204;19.774;2023-06-10T09:42:15;99935.91;;;26.23;57.87
72961;BME280;61141;46.204;19.774;2023-06-10T09:45:21;99925.94;;;25.79;57.77
72961;BME280;61141;46.204;19.774;2023-06-10T09:48:24;99928.94;;;25.37;62.11
72961;BME280;61141;46.204;19.774;2023-06-10T09:51:27;99932.28;;;25.50;62.94
72961;BME280;61141;46.204;19.774;2023-06-10T09:54:31;99927.69;;;24.43;65.17
72961;BME280;61141;46.204;19.774;2023-06-10T09:57:34;99929.75;;;24.66;64.13
72961;BME280;61141;46.204;19.774;2023-06-10T10:00:39;99925.91;;;25.64;60.99
72961;BME280;61141;46.204;19.774;2023-06-10T10:03:49;99926.72;;;25.79;59.41
72961;BME280;61141;46.204;19.774;2023-06-10T10:06:52;99913.72;;;25.67;59.41
72961;BME280;61141;46.204;19.774;2023-06-10T10:09:55;99905.28;;;25.14;60.25
72961;BME280;61141;46.204;19.774;2023-06-10T10:12:58;99917.34;;;25.29;60.52
72961;BME280;61141;46.204;19.774;2023-06-10T10:16:06;99917.84;;;25.42;60.65
72961;BME280;61141;46.204;19.774;2023-06-10T10:19:18;99917.50;;;25.26;63.32
72961;BME280;61141;46.204;19.774;2023-06-10T10:22:30;99929.47;;;25.11;65.13
72961;BME280;61141;46.204;19.774;2023-06-10T10:25:38;99926.44;;;24.44;66.94
72961;BME280;61141;46.204;19.774;2023-06-10T10:28:48;99934.84;;;23.84;69.85
72961;BME280;61141;46.204;19.774;2023-06-10T10:31:55;99936.22;;;23.97;74.87
72961;BME280;61141;46.204;19.774;2023-06-10T10:35:20;99943.38;;;23.89;72.17
72961;BME280;61141;46.204;19.774;2023-06-10T10:38:26;99935.81;;;23.63;73.85
72961;BME280;61141;46.204;19.774;2023-06-10T10:41:31;99936.59;;;23.27;74.81
72961;BME280;61141;46.204;19.774;2023-06-10T10:44:37;99940.47;;;23.11;76.39
72961;BME280;61141;46.204;19.774;2023-06-10T10:47:41;99950.72;;;23.05;77.12
72961;BME280;61141;46.204;19.774;2023-06-10T10:50:56;99949.03;;;23.17;74.66
72961;BME280;61141;46.204;19.774;2023-06-10T10:54:13;99943.13;;;23.24;75.92
72961;BME280;61141;46.204;19.774;2023-06-10T10:57:18;99919.66;;;22.94;79.53
72961;BME280;61141;46.204;19.774;2023-06-10T11:00:33;99930.53;;;22.52;81.61
72961;BME280;61141;46.204;19.774;2023-06-10T11:03:42;99939.47;;;22.38;84.51
72961;BME280;61141;46.204;19.774;2023-06-10T11:06:53;99926.69;;;21.66;88.11
72961;BME280;61141;46.204;19.774;2023-06-10T11:10:10;99924.94;;;21.38;92.60
72961;BME280;61141;46.204;19.774;2023-06-10T11:13:14;99935.88;;;20.86;96.91
72961;BME280;61141;46.204;19.774;2023-06-10T11:16:20;99940.03;;;20.18;100.00
72961;BME280;61141;46.204;19.774;2023-06-10T11:19:34;99953.22;;;19.76;100.00
72961;BME280;61141;46.204;19.774;2023-06-10T11:22:58;99960.59;;;19.54;100.00
72961;BME280;61141;46.204;19.774;2023-06-10T11:26:14;99977.75;;;19.20;100.00
72961;BME280;61141;46.204;19.774;2023-06-10T11:29:18;99984.69;;;19.12;100.00
72961;BME280;61141;46.204;19.774;2023-06-10T11:32:24;99980.47;;;19.36;100.00
72961;BME280;61141;46.204;19.774;2023-06-10T11:35:31;99987.81;;;19.14;100.00
72961;BME280;61141;46.204;19.774;2023-06-10T11:38:35;99984.50;;;19.19;100.00
72961;BME280;61141;46.204;19.774;2023-06-10T11:41:39;99980.00;;;19.25;100.00
72961;BME280;61141;46.204;19.774;2023-06-10T11:44:53;99980.69;;;19.29;100.00
72961;BME280;61141;46.204;19.774;2023-06-10T11:47:59;99979.47;;;19.47;100.00
72961;BME280;61141;46.204;19.774;2023-06-10T11:51:08;99969.03;;;19.51;100.00
72961;BME280;61141;46.204;19.774;2023-06-10T11:54:11;99970.06;;;19.57;100.00
72961;BME280;61141;46.204;19.774;2023-06-10T11:57:14;99967.75;;;19.68;100.00
72961;BME280;61141;46.204;19.774;2023-06-10T12:00:17;99976.25;;;19.77;100.00
72961;BME280;61141;46.204;19.774;2023-06-10T12:03:21;99974.66;;;19.76;100.00
72961;BME280;61141;46.204;19.774;2023-06-10T12:06:25;99955.22;;;19.88;100.00
72961;BME280;61141;46.204;19.774;2023-06-10T12:09:29;99952.44;;;19.88;100.00
72961;BME280;61141;46.204;19.774;2023-06-10T12:12:34;99946.34;;;19.93;100.00
72961;BME280;61141;46.204;19.774;2023-06-10T12:15:39;99949.47;;;20.08;100.00
72961;BME280;61141;46.204;19.774;2023-06-10T12:18:46;99939.16;;;20.21;100.00
72961;BME280;61141;46.204;19.774;2023-06-10T12:21:49;99938.97;;;20.28;100.00
72961;BME280;61141;46.204;19.774;2023-06-10T12:25:02;99941.06;;;20.37;100.00
72961;BME280;61141;46.204;19.774;2023-06-10T12:28:09;99939.59;;;20.58;100.00
72961;BME280;61141;46.204;19.774;2023-06-10T12:31:12;99937.72;;;20.67;100.00
72961;BME280;61141;46.204;19.774;2023-06-10T12:34:15;99932.69;;;20.75;100.00
72961;BME280;61141;46.204;19.774;2023-06-10T12:37:18;99927.94;;;20.97;100.00
72961;BME280;61141;46.204;19.774;2023-06-10T12:40:29;99930.63;;;20.88;100.00
72961;BME280;61141;46.204;19.774;2023-06-10T12:43:34;99925.31;;;20.81;100.00
72961;BME280;61141;46.204;19.774;2023-06-10T12:46:37;99918.91;;;21.18;99.92
72961;BME280;61141;46.204;19.774;2023-06-10T12:49:40;99900.03;;;21.22;100.00
72961;BME280;61141;46.204;19.774;2023-06-10T12:52:43;99904.00;;;21.55;100.00
72961;BME280;61141;46.204;19.774;2023-06-10T12:55:46;99903.69;;;21.53;100.00
72961;BME280;61141;46.204;19.774;2023-06-10T12:58:50;99914.03;;;21.75;100.00
72961;BME280;61141;46.204;19.774;2023-06-10T13:01:53;99915.84;;;21.68;100.00
72961;BME280;61141;46.204;19.774;2023-06-10T13:04:57;99900.91;;;21.53;100.00
72961;BME280;61141;46.204;19.774;2023-06-10T13:07:59;99904.84;;;21.65;100.00
72961;BME280;61141;46.204;19.774;2023-06-10T13:11:02;99896.88;;;21.85;97.42
72961;BME280;61141;46.204;19.774;2023-06-10T13:14:05;99897.31;;;22.36;96.82
72961;BME280;61141;46.204;19.774;2023-06-10T13:17:09;99888.28;;;22.32;97.16
72961;BME280;61141;46.204;19.774;2023-06-10T13:20:11;99888.66;;;22.52;97.70
72961;BME280;61141;46.204;19.774;2023-06-10T13:23:15;99870.44;;;22.69;91.36
72961;BME280;61141;46.204;19.774;2023-06-10T13:26:17;99862.53;;;23.13;96.11
72961;BME280;61141;46.204;19.774;2023-06-10T13:29:20;99872.63;;;22.84;92.23
72961;BME280;61141;46.204;19.774;2023-06-10T13:32:23;99876.00;;;22.69;92.92
72961;BME280;61141;46.204;19.774;2023-06-10T13:35:26;99857.09;;;22.92;92.47
72961;BME280;61141;46.204;19.774;2023-06-10T13:38:29;99857.72;;;23.05;88.79
72961;BME280;61141;46.204;19.774;2023-06-10T13:41:32;99843.25;;;23.06;86.56
72961;BME280;61141;46.204;19.774;2023-06-10T13:44:35;99850.56;;;23.04;85.64
72961;BME280;61141;46.204;19.774;2023-06-10T13:47:39;99842.47;;;23.24;83.27
72961;BME280;61141;46.204;19.774;2023-06-10T13:50:41;99843.38;;;23.57;82.49
72961;BME280;61141;46.204;19.774;2023-06-10T13:53:48;99840.87;;;24.43;78.51
72961;BME280;61141;46.204;19.774;2023-06-10T13:56:50;99841.66;;;24.91;77.00
72961;BME280;61141;46.204;19.774;2023-06-10T13:59:53;99841.22;;;24.83;77.18
72961;BME280;61141;46.204;19.774;2023-06-10T14:02:58;99834.94;;;24.88;73.52
72961;BME280;61141;46.204;19.774;2023-06-10T14:06:01;99831.25;;;25.21;76.66
72961;BME280;61141;46.204;19.774;2023-06-10T14:09:04;99837.50;;;24.77;75.73
72961;BME280;61141;46.204;19.774;2023-06-10T14:12:08;99839.66;;;24.35;75.41
72961;BME280;61141;46.204;19.774;2023-06-10T14:15:11;99841.34;;;24.65;75.02
72961;BME280;61141;46.204;19.774;2023-06-10T14:18:15;99833.13;;;24.38;75.67
72961;BME280;61141;46.204;19.774;2023-06-10T14:21:17;99824.13;;;24.81;73.44
72961;BME280;61141;46.204;19.774;2023-06-10T14:24:21;99824.47;;;24.50;72.24
72961;BME280;61141;46.204;19.774;2023-06-10T14:27:24;99818.37;;;24.76;73.61
72961;BME280;61141;46.204;19.774;2023-06-10T14:30:27;99813.91;;;24.69;72.51
72961;BME280;61141;46.204;19.774;2023-06-10T14:33:29;99814.22;;;25.09;73.07
72961;BME280;61141;46.204;19.774;2023-06-10T14:36:34;99813.25;;;25.27;71.67
72961;BME280;61141;46.204;19.774;2023-06-10T14:39:37;99817.81;;;25.25;70.21
72961;BME280;61141;46.204;19.774;2023-06-10T14:42:40;99819.84;;;25.09;72.13
72961;BME280;61141;46.204;19.774;2023-06-10T14:45:43;99810.53;;;25.03;69.83
72961;BME280;61141;46.204;19.774;2023-06-10T14:48:47;99812.31;;;24.53;70.37
72961;BME280;61141;46.204;19.774;2023-06-10T14:51:50;99832.09;;;24.50;72.11
72961;BME280;61141;46.204;19.774;2023-06-10T14:54:53;99829.47;;;24.23;72.44
72961;BME280;61141;46.204;19.774;2023-06-10T14:57:56;99823.66;;;24.35;72.36
72961;BME280;61141;46.204;19.774;2023-06-10T15:01:00;99828.31;;;24.38;73.93
72961;BME280;61141;46.204;19.774;2023-06-10T15:04:03;99826.53;;;24.17;74.25
72961;BME280;61141;46.204;19.774;2023-06-10T15:07:06;99820.84;;;24.03;82.66
72961;BME280;61141;46.204;19.774;2023-06-10T15:10:09;99812.94;;;23.92;80.38
72961;BME280;61141;46.204;19.774;2023-06-10T15:13:12;99814.50;;;23.93;82.23
72961;BME280;61141;46.204;19.774;2023-06-10T15:16:15;99804.69;;;23.97;78.98
72961;BME280;61141;46.204;19.774;2023-06-10T15:19:18;99811.84;;;23.98;78.21
72961;BME280;61141;46.204;19.774;2023-06-10T15:22:21;99813.16;;;24.21;80.24
72961;BME280;61141;46.204;19.774;2023-06-10T15:25:24;99816.38;;;24.29;77.98
72961;BME280;61141;46.204;19.774;2023-06-10T15:28:33;99816.31;;;24.38;83.57
72961;BME280;61141;46.204;19.774;2023-06-10T15:31:36;99816.19;;;24.32;79.69
72961;BME280;61141;46.204;19.774;2023-06-10T15:34:39;99805.34;;;24.49;76.14
72961;BME280;61141;46.204;19.774;2023-06-10T15:37:41;99808.31;;;24.69;72.09
72961;BME280;61141;46.204;19.774;2023-06-10T15:40:44;99811.66;;;24.59;74.10
72961;BME280;61141;46.204;19.774;2023-06-10T15:43:47;99808.00;;;24.67;71.70
72961;BME280;61141;46.204;19.774;2023-06-10T15:46:50;99810.81;;;24.67;72.83
72961;BME280;61141;46.204;19.774;2023-06-10T15:49:53;99813.91;;;24.69;72.05
72961;BME280;61141;46.204;19.774;2023-06-10T15:52:55;99818.16;;;24.41;71.38
72961;BME280;61141;46.204;19.774;2023-06-10T15:55:58;99811.66;;;24.35;72.21
72961;BME280;61141;46.204;19.774;2023-06-10T15:59:01;99816.97;;;24.33;71.04
72961;BME280;61141;46.204;19.774;2023-06-10T16:02:04;99824.59;;;24.56;70.68